Time;durP1;ratioP1;P1;durP2;ratioP2;P2;SDS_P1;SDS_P2;PMS_P1;PMS_P2;Temp;Humidity;BMP_temperature;BMP_pressure;BME280_temperature;BME280_humidity;BME280_pressure;Samples;Min_cycle;Max_cycle;Signal;HPM_P1;HPM_P2
2022/06/06 00:02:45;;;;;;;5.70;2.80;;;;;;;15.50;55.84;100542.38;3627032;79;99117;-87
2022/06/06 00:07:46;;;;;;;5.90;2.83;;;;;;;15.48;55.92;100532.28;3612755;80;98786;-87
2022/06/06 00:12:47;;;;;;;6.73;3.00;;;;;;;15.45;55.89;100533.69;3624871;80;26427;-88
2022/06/06 00:17:48;;;;;;;5.40;2.90;;;;;;;15.41;56.01;100519.85;3578123;81;99138;-88
2022/06/06 00:22:49;;;;;;;5.93;2.70;;;;;;;15.38;56.02;100515.11;3615386;80;98624;-87
2022/06/06 00:27:51;;;;;;;6.13;2.70;;;;;;;15.36;56.40;100516.73;3607035;80;98824;-87
2022/06/06 00:38:12;;;;;;;7.50;2.85;;;;;;;15.29;56.62;100505.64;3590534;81;98846;-87
2022/06/06 00:43:13;;;;;;;5.80;2.60;;;;;;;15.25;56.83;100509.03;3604536;81;28856;-88
2022/06/06 00:48:22;;;;;;;7.00;3.20;;;;;;;15.21;56.89;100515.98;3570920;81;98964;-87
2022/06/06 00:53:46;;;;;;;5.47;2.65;;;;;;;15.17;57.54;100511.67;3592574;81;99077;-87
2022/06/06 00:58:52;;;;;;;8.08;4.55;;;;;;;15.12;57.59;100507.94;3629002;80;99248;-87
2022/06/06 01:03:57;;;;;;;7.62;3.92;;;;;;;15.08;57.46;100504.39;3615804;81;99198;-87
2022/06/06 01:08:58;;;;;;;7.17;3.37;;;;;;;15.07;57.94;100508.36;3600189;80;98923;-87
2022/06/06 01:13:59;;;;;;;6.15;2.85;;;;;;;15.05;58.45;100502.44;3590289;80;98797;-88
2022/06/06 01:19:33;;;;;;;6.93;3.07;;;;;;;15.05;58.38;100494.13;3616278;80;98845;-88
2022/06/06 01:25:10;;;;;;;6.50;3.02;;;;;;;15.04;58.10;100485.63;3615416;80;98630;-87
2022/06/06 01:30:14;;;;;;;;;;;;;;;15.01;58.95;100473.36;3627841;80;98746;-87
2022/06/06 01:35:30;;;;;;;6.87;3.27;;;;;;;15.02;59.87;100468.00;3646764;79;84147;-86
2022/06/06 01:41:03;;;;;;;7.00;3.57;;;;;;;15.00;59.10;100455.74;3633859;80;98840;-88
2022/06/06 01:46:14;;;;;;;9.63;3.67;;;;;;;14.99;59.03;100453.56;3644679;80;99170;-87
2022/06/06 01:51:27;;;;;;;8.13;3.33;;;;;;;14.96;59.19;100450.81;3640070;80;98861;-87
2022/06/06 01:56:35;;;;;;;7.33;3.45;;;;;;;14.92;59.44;100450.84;3706025;78;99182;-87
2022/06/06 02:01:36;;;;;;;6.47;3.22;;;;;;;14.89;59.49;100441.17;3660691;79;31624;-87
2022/06/06 02:06:41;;;;;;;6.83;3.20;;;;;;;14.85;60.14;100430.11;3694290;78;98966;-87
2022/06/06 02:11:41;;;;;;;6.95;3.62;;;;;;;14.84;60.18;100430.51;3702625;78;98677;-87
2022/06/06 02:16:43;;;;;;;7.43;3.40;;;;;;;14.81;60.27;100424.38;3665882;78;98908;-87
2022/06/06 02:21:44;;;;;;;7.13;3.70;;;;;;;14.79;60.50;100428.97;3694196;78;98785;-87
2022/06/06 02:26:45;;;;;;;6.40;3.10;;;;;;;14.75;60.69;100421.84;3707909;79;98927;-86
2022/06/06 02:31:46;;;;;;;7.13;3.60;;;;;;;14.74;60.73;100431.36;3724725;78;98705;-87
2022/06/06 02:36:47;;;;;;;6.37;3.30;;;;;;;14.69;61.03;100428.42;3699642;78;98790;-87
2022/06/06 02:41:48;;;;;;;7.60;3.40;;;;;;;14.65;61.23;100430.41;3696592;79;98596;-87
2022/06/06 02:46:50;;;;;;;8.60;4.10;;;;;;;14.61;61.45;100430.25;3700268;77;99122;-86
2022/06/06 02:51:51;;;;;;;7.30;3.80;;;;;;;14.57;62.15;100445.51;3719703;78;98795;-87
2022/06/06 02:56:53;;;;;;;7.10;3.23;;;;;;;14.56;61.89;100448.67;3728693;77;98857;-86
2022/06/06 03:01:54;;;;;;;7.53;3.90;;;;;;;14.53;62.32;100439.77;3722146;78;98695;-87
2022/06/06 03:07:18;;;;;;;8.93;4.47;;;;;;;14.52;62.12;100441.77;3714195;78;98860;-87
2022/06/06 03:12:47;;;;;;;6.75;3.30;;;;;;;14.52;62.92;100444.54;3717302;79;98693;-87
2022/06/06 03:23:53;;;;;;;9.78;4.58;;;;;;;14.53;63.03;100453.63;3715984;78;99047;-87
2022/06/06 03:29:34;;;;;;;8.23;4.42;;;;;;;14.51;63.52;100454.63;3708128;77;99215;-87
2022/06/06 03:34:56;;;;;;;8.83;4.20;;;;;;;14.54;63.62;100460.73;3734228;78;98899;-87
2022/06/06 03:40:26;;;;;;;10.65;4.30;;;;;;;14.56;64.41;100461.91;3532805;77;99238;-87
2022/06/06 03:45:50;;;;;;;8.50;4.85;;;;;;;14.62;64.39;100458.14;3672592;78;99329;-87
2022/06/06 03:51:23;;;;;;;9.13;4.45;;;;;;;14.69;64.97;100463.63;3640950;79;98821;-87
2022/06/06 03:56:47;;;;;;;12.55;5.17;;;;;;;14.75;65.32;100468.36;3699515;78;98834;-87
2022/06/06 04:01:51;;;;;;;9.00;5.03;;;;;;;14.80;65.25;100462.40;3639919;78;99081;-87
2022/06/06 04:06:57;;;;;;;10.75;5.40;;;;;;;14.84;65.60;100462.38;3697904;78;98600;-87
2022/06/06 04:12:25;;;;;;;11.45;6.30;;;;;;;14.89;67.30;100457.80;3740572;77;99210;-87
2022/06/06 04:17:54;;;;;;;10.63;5.40;;;;;;;14.94;66.24;100461.53;3703251;78;99268;-86
2022/06/06 04:23:15;;;;;;;11.63;5.85;;;;;;;14.98;66.40;100458.92;3713699;77;99339;-87
2022/06/06 04:28:46;;;;;;;11.25;6.67;;;;;;;15.02;66.79;100456.12;3699585;78;99012;-87
2022/06/06 04:34:18;;;;;;;9.58;6.15;;;;;;;15.05;67.47;100465.02;3712769;78;98912;-87
2022/06/06 04:39:59;;;;;;;11.55;6.28;;;;;;;15.12;67.06;100456.65;3704637;78;98984;-87
2022/06/06 04:45:24;;;;;;;12.25;6.87;;;;;;;15.20;67.23;100462.35;3699339;78;99130;-87
2022/06/06 04:50:25;;;;;;;12.20;6.90;;;;;;;15.31;67.18;100456.91;3725211;78;99319;-88
2022/06/06 04:55:29;;;;;;;11.37;6.90;;;;;;;15.44;68.05;100445.55;3726047;78;29841;-87
2022/06/06 05:00:37;;;;;;;14.23;6.72;;;;;;;15.60;68.16;100440.84;3710229;78;99136;-87
2022/06/06 05:06:05;;;;;;;12.88;7.05;;;;;;;15.74;67.70;100424.85;3710999;78;99068;-88
2022/06/06 05:11:29;;;;;;;14.28;6.70;;;;;;;15.96;68.18;100427.59;3679895;77;98951;-88
2022/06/06 05:16:44;;;;;;;12.68;7.30;;;;;;;16.22;67.46;100426.91;3704818;78;98970;-88
2022/06/06 05:22:08;;;;;;;12.40;7.70;;;;;;;16.56;67.18;100426.92;3716033;78;99279;-88
2022/06/06 05:27:55;;;;;;;11.63;7.90;;;;;;;17.02;66.74;100427.84;3711726;77;99374;-87
2022/06/06 05:33:11;;;;;;;14.75;8.98;;;;;;;17.57;66.07;100417.63;3708198;78;99392;-83
2022/06/06 05:38:51;;;;;;;12.83;8.90;;;;;;;18.18;64.91;100410.50;3724875;77;99313;-83
2022/06/06 05:44:09;;;;;;;11.85;7.53;;;;;;;18.67;63.89;100406.09;3718628;78;99459;-82
2022/06/06 05:49:45;;;;;;;11.83;7.97;;;;;;;19.30;63.03;100400.44;3699818;78;98883;-82
2022/06/06 05:55:03;;;;;;;13.90;8.57;;;;;;;19.90;61.72;100404.47;3693112;78;98606;-82
2022/06/06 06:00:22;;;;;;;14.55;8.73;;;;;;;20.45;61.03;100407.71;3685691;78;98937;-83
2022/06/06 06:05:28;;;;;;;13.58;8.10;;;;;;;21.05;59.29;100403.88;3682862;78;98871;-83
2022/06/06 06:10:47;;;;;;;12.07;8.93;;;;;;;21.43;59.29;100391.23;3665812;78;99136;-82
2022/06/06 06:15:52;;;;;;;15.58;9.13;;;;;;;21.66;57.44;100395.82;3674216;78;99314;-83
2022/06/06 06:21:11;;;;;;;16.10;10.40;;;;;;;21.87;57.31;100405.52;3666533;77;99298;-81
2022/06/06 06:26:13;;;;;;;12.98;9.30;;;;;;;22.16;56.71;100406.06;3665445;77;99827;-82
2022/06/06 06:31:25;;;;;;;13.85;9.20;;;;;;;22.38;55.45;100402.63;3659376;78;98704;-81
2022/06/06 06:36:53;;;;;;;12.63;8.80;;;;;;;22.58;54.54;100401.71;3675013;78;98838;-82
2022/06/06 06:42:14;;;;;;;17.07;9.78;;;;;;;23.06;54.75;100414.41;3679464;78;98810;-82
2022/06/06 06:47:19;;;;;;;13.93;10.13;;;;;;;23.69;53.17;100424.45;3678689;78;99207;-81
2022/06/06 06:52:49;;;;;;;15.18;9.30;;;;;;;24.07;51.71;100409.36;3683911;78;99345;-82
2022/06/06 06:58:40;;;;;;;19.80;9.30;;;;;;;24.01;50.85;100405.62;3691066;78;99321;-81
2022/06/06 07:09:39;;;;;;;13.30;8.88;;;;;;;24.46;50.80;100397.13;3646133;78;99441;-81
2022/06/06 07:15:03;;;;;;;12.55;9.10;;;;;;;24.49;50.02;100387.75;3681750;78;99058;-83
2022/06/06 07:20:09;;;;;;;12.30;8.93;;;;;;;24.54;49.85;100384.30;3662047;78;99029;-82
2022/06/06 07:25:11;;;;;;;15.20;9.30;;;;;;;24.44;49.05;100374.94;3682947;78;26023;-82
2022/06/06 07:30:13;;;;;;;14.07;8.85;;;;;;;24.41;49.20;100389.31;3677380;78;98833;-82
2022/06/06 07:35:37;;;;;;;14.55;9.05;;;;;;;24.47;49.44;100388.83;3687673;77;98860;-82
2022/06/06 07:41:05;;;;;;;12.93;8.80;;;;;;;24.63;49.31;100380.71;3684176;77;98961;-81
2022/06/06 07:46:49;;;;;;;11.45;8.50;;;;;;;24.65;48.38;100372.56;3679960;78;99508;-82
2022/06/06 07:52:05;;;;;;;12.80;8.80;;;;;;;24.77;48.63;100372.98;3707397;78;99016;-82
2022/06/06 07:57:21;;;;;;;;;;;;;;;24.90;48.51;100372.17;3684778;78;99068;-83
2022/06/06 08:02:43;;;;;;;15.38;8.45;;;;;;;25.34;47.41;100385.90;3700516;78;85039;-82
2022/06/06 08:08:14;;;;;;;12.23;9.25;;;;;;;25.77;47.56;100372.61;3672545;78;98705;-82
2022/06/06 08:13:38;;;;;;;13.48;8.83;;;;;;;26.21;47.01;100365.80;3683973;78;26525;-81
2022/06/06 08:19:14;;;;;;;12.37;8.83;;;;;;;26.68;46.57;100365.65;3589885;80;98878;-81
2022/06/06 08:24:41;;;;;;;13.70;8.63;;;;;;;26.73;46.10;100355.08;3624022;79;98931;-81
2022/06/06 08:29:44;;;;;;;13.60;8.25;;;;;;;27.02;45.75;100362.08;3618118;79;98866;-81
2022/06/06 08:34:47;;;;;;;12.65;9.85;;;;;;;27.01;44.92;100361.94;3641633;79;98954;-82
2022/06/06 08:40:26;;;;;;;11.83;9.10;;;;;;;27.32;44.69;100360.77;3636927;79;99299;-81
2022/06/06 08:46:07;;;;;;;13.80;9.10;;;;;;;27.71;44.76;100374.77;3628387;79;99527;-81
2022/06/06 08:51:25;;;;;;;16.00;10.25;;;;;;;27.87;44.67;100369.98;3644899;78;98972;-82
2022/06/06 08:56:53;;;;;;;14.07;9.77;;;;;;;28.03;43.99;100380.72;3623723;79;109977;-81
2022/06/06 09:02:24;;;;;;;14.40;11.33;;;;;;;28.10;43.40;100374.61;3622344;79;26235;-82
2022/06/06 09:08:07;;;;;;;13.75;9.55;;;;;;;28.04;42.88;100384.31;3637274;79;99130;-81
2022/06/06 09:13:40;;;;;;;17.82;11.70;;;;;;;27.93;43.14;100383.55;3644373;79;98677;-82
2022/06/06 09:19:10;;;;;;;17.57;11.38;;;;;;;27.78;43.33;100372.95;3613350;79;99083;-83
2022/06/06 09:24:48;;;;;;;16.05;11.00;;;;;;;27.77;43.75;100375.61;3642458;79;99444;-82
2022/06/06 09:30:18;;;;;;;15.83;11.45;;;;;;;28.14;43.66;100379.42;3636515;79;99090;-81
2022/06/06 09:35:49;;;;;;;14.87;11.28;;;;;;;28.07;43.04;100377.02;3618519;79;99145;-81
2022/06/06 09:41:19;;;;;;;17.05;12.25;;;;;;;27.95;42.93;100378.82;3556093;81;99312;-82
2022/06/06 09:46:59;;;;;;;14.33;8.35;;;;;;;27.96;43.24;100381.78;3568553;81;99590;-81
2022/06/06 09:52:47;;;;;;;14.87;10.48;;;;;;;28.15;43.77;100378.14;3615307;79;98167;-79
2022/06/06 10:04:34;;;;;;;15.28;11.70;;;;;;;28.19;42.46;100372.26;3621295;79;98395;-82
2022/06/06 10:10:01;;;;;;;15.80;11.20;;;;;;;28.09;43.13;100380.14;3580356;80;99504;-81
2022/06/06 10:15:11;;;;;;;12.45;10.65;;;;;;;28.10;42.89;100383.73;3573282;81;98626;-81
2022/06/06 10:20:41;;;;;;;14.43;11.08;;;;;;;27.95;42.94;100378.16;3559310;80;98389;-81
2022/06/06 10:26:01;;;;;;;13.25;9.88;;;;;;;27.83;43.07;100378.53;3579415;81;98063;-80
2022/06/06 10:31:17;;;;;;;17.52;11.57;;;;;;;27.58;43.52;100379.98;3510977;82;99308;-81
2022/06/06 10:36:24;;;;;;;16.60;13.03;;;;;;;27.29;44.35;100385.00;3572657;80;99141;-79
2022/06/06 10:41:50;;;;;;;16.90;13.30;;;;;;;26.93;45.74;100402.38;3515564;81;98455;-82
2022/06/06 10:47:16;;;;;;;17.55;13.22;;;;;;;26.43;47.18;100412.77;3572017;80;99085;-82
2022/06/06 10:53:00;;;;;;;17.52;13.53;;;;;;;25.59;49.10;100420.64;3554598;82;98470;-83
2022/06/06 10:58:32;;;;;;;17.85;14.70;;;;;;;24.71;50.82;100429.16;3561891;80;98865;-83
2022/06/06 11:04:07;;;;;;;21.73;15.05;;;;;;;24.33;53.03;100428.09;3555448;82;98741;-83
2022/06/06 11:09:19;;;;;;;19.40;13.43;;;;;;;23.96;54.11;100439.19;3509895;82;99088;-82
2022/06/06 11:14:41;;;;;;;19.75;14.23;;;;;;;23.57;55.75;100442.23;3579685;80;26818;-83
2022/06/06 11:20:04;;;;;;;16.93;12.93;;;;;;;23.40;56.54;100445.16;3581163;81;99296;-83
2022/06/06 11:25:15;;;;;;;19.85;15.68;;;;;;;23.28;57.87;100443.86;3606065;80;99528;-83
2022/06/06 11:30:28;;;;;;;23.35;15.88;;;;;;;23.19;58.12;100448.03;3555195;80;99175;-83
2022/06/06 11:35:58;;;;;;;20.30;15.18;;;;;;;22.94;58.55;100450.38;3579105;80;99713;-83
2022/06/06 11:41:21;;;;;;;18.40;14.60;;;;;;;22.76;59.56;100456.52;3668095;80;99525;-84
2022/06/06 11:47:00;;;;;;;19.90;16.23;;;;;;;22.57;61.13;100457.66;3629447;79;99588;-83
2022/06/06 11:52:25;;;;;;;19.15;15.00;;;;;;;22.31;61.65;100456.98;3646826;79;99581;-84
2022/06/06 11:58:00;;;;;;;19.32;15.65;;;;;;;22.01;62.36;100455.48;3601977;79;99211;-84
2022/06/06 12:03:41;;;;;;;22.37;18.00;;;;;;;21.82;63.15;100455.13;3669708;78;99484;-85
2022/06/06 12:08:56;;;;;;;21.20;17.45;;;;;;;21.68;64.04;100459.84;3631184;79;99543;-85
2022/06/06 12:14:14;;;;;;;23.73;19.60;;;;;;;21.65;64.94;100464.89;3635910;79;98878;-85
2022/06/06 12:19:50;;;;;;;24.75;17.70;;;;;;;21.60;65.47;100465.46;3612004;79;99613;-86
2022/06/06 12:25:22;;;;;;;22.15;17.27;;;;;;;21.54;65.84;100463.06;3509371;83;99436;-85
2022/06/06 12:30:51;;;;;;;22.85;15.93;;;;;;;21.36;66.63;100459.44;3512270;81;99300;-85
2022/06/06 12:36:09;;;;;;;27.48;19.73;;;;;;;21.22;67.22;100464.70;3577351;82;99577;-84
2022/06/06 12:41:37;;;;;;;22.27;18.75;;;;;;;21.16;68.12;100460.91;3539491;82;99548;-85
2022/06/06 12:47:26;;;;;;;20.50;15.85;;;;;;;20.99;68.57;100458.05;3610217;79;99126;-85
2022/06/06 12:52:38;;;;;;;24.73;18.40;;;;;;;20.94;68.40;100464.98;3601509;79;98314;-85
2022/06/06 12:57:53;;;;;;;23.65;20.15;;;;;;;20.83;69.02;100460.30;3590164;80;99620;-84
2022/06/06 13:03:15;;;;;;;22.60;19.03;;;;;;;20.75;69.91;100458.93;3605023;81;26566;-88
2022/06/06 13:08:42;;;;;;;27.85;21.68;;;;;;;20.66;70.37;100455.99;3595780;79;99290;-85
2022/06/06 13:14:17;;;;;;;24.92;20.48;;;;;;;20.54;71.11;100468.57;3601945;80;98981;-86
2022/06/06 13:20:04;;;;;;;25.48;21.45;;;;;;;20.43;71.48;100469.48;3605094;79;98969;-86
2022/06/06 13:25:37;;;;;;;29.07;21.68;;;;;;;20.30;72.35;100464.45;3611631;80;99051;-87
2022/06/06 13:30:46;;;;;;;27.52;22.32;;;;;;;20.24;73.54;100467.02;3600032;80;99231;-86
2022/06/06 13:36:11;;;;;;;23.05;18.95;;;;;;;20.18;75.12;100463.79;3613720;80;99549;-88
2022/06/06 13:41:42;;;;;;;24.32;20.12;;;;;;;20.25;75.85;100456.00;3609633;80;99586;-88
2022/06/06 13:47:18;;;;;;;26.93;22.15;;;;;;;20.47;77.08;100464.56;3597288;80;99322;-87
2022/06/06 13:52:29;;;;;;;;;;;;;;;20.59;76.77;100452.65;3610068;79;99156;-90
2022/06/06 13:57:35;;;;;;;32.53;26.27;;;;;;;20.78;78.76;100446.07;3598402;80;84986;-86
2022/06/06 14:02:59;;;;;;;28.10;22.65;;;;;;;20.90;76.21;100442.52;3611861;80;99328;-90
2022/06/06 14:08:15;;;;;;;29.80;24.23;;;;;;;20.96;75.87;100445.73;3620752;80;99251;-87
2022/06/06 14:13:48;;;;;;;26.10;23.15;;;;;;;21.14;75.59;100438.95;3610129;80;98905;-86
2022/06/06 14:18:54;;;;;;;23.18;20.35;;;;;;;21.39;75.56;100427.75;3611281;80;99076;-88
2022/06/06 14:24:17;;;;;;;27.07;23.95;;;;;;;21.71;75.30;100432.30;3603133;81;99171;-86
2022/06/06 14:29:34;;;;;;;25.57;21.57;;;;;;;21.69;74.38;100436.95;3617108;80;99113;-90
2022/06/06 14:34:43;;;;;;;28.30;23.10;;;;;;;21.73;75.28;100420.02;3615354;79;99429;-87
2022/06/06 14:39:51;;;;;;;24.20;21.42;;;;;;;21.78;74.34;100418.84;3604416;81;99552;-90
2022/06/06 14:45:10;;;;;;;23.32;20.52;;;;;;;21.75;74.24;100418.33;3576967;82;31638;-92
2022/06/06 14:55:42;;;;;;;23.80;21.20;;;;;;;22.01;74.70;100410.64;3565073;82;99474;-89
2022/06/06 15:00:58;;;;;;;24.03;20.77;;;;;;;22.06;73.50;100401.65;3562114;80;99121;-92
2022/06/06 15:06:11;;;;;;;21.50;19.07;;;;;;;21.98;73.01;100409.53;3559271;81;98775;-91
2022/06/06 15:11:18;;;;;;;22.05;19.65;;;;;;;22.11;72.93;100399.64;3547375;81;100261;-92
2022/06/06 15:16:22;;;;;;;24.45;21.85;;;;;;;22.15;72.77;100396.09;3558305;82;99537;-90
2022/06/06 15:21:33;;;;;;;22.87;20.25;;;;;;;22.32;72.35;100394.05;3566444;81;31663;-92
2022/06/06 15:26:58;;;;;;;23.30;20.45;;;;;;;22.37;72.02;100392.05;3672180;78;99493;-90
2022/06/06 15:32:23;;;;;;;24.60;21.93;;;;;;;22.32;72.12;100390.45;3686151;80;99310;-89
2022/06/06 15:37:47;;;;;;;23.85;20.68;;;;;;;22.34;71.54;100382.38;3670970;80;99478;-88
2022/06/06 15:43:16;;;;;;;24.70;20.95;;;;;;;22.35;71.63;100379.73;3577869;80;99666;-88
2022/06/06 15:48:38;;;;;;;28.30;21.02;;;;;;;22.33;71.44;100377.38;3695016;78;99976;-88
2022/06/06 15:54:01;;;;;;;22.32;18.85;;;;;;;22.32;71.84;100382.03;3689754;78;99535;-86
2022/06/06 15:59:33;;;;;;;21.82;19.42;;;;;;;22.21;72.26;100376.05;3683603;78;99478;-87
2022/06/06 16:04:54;;;;;;;25.08;22.30;;;;;;;22.17;72.12;100372.61;3698540;78;99459;-89
2022/06/06 16:10:30;;;;;;;25.32;21.27;;;;;;;22.12;72.78;100360.58;3678976;78;99627;-90
2022/06/06 16:15:53;;;;;;;24.50;21.33;;;;;;;22.10;72.65;100361.64;3688911;78;27136;-90
2022/06/06 16:21:14;;;;;;;25.37;22.05;;;;;;;22.08;72.66;100353.67;3680985;78;99188;-88
2022/06/06 16:26:20;;;;;;;24.90;20.75;;;;;;;22.06;72.85;100351.96;3685048;78;99465;-87
2022/06/06 16:31:35;;;;;;;25.85;22.48;;;;;;;22.01;72.78;100357.39;3681083;78;98952;-90
2022/06/06 16:37:06;;;;;;;21.85;19.40;;;;;;;21.95;72.95;100359.19;3676948;78;99504;-88
2022/06/06 16:48:11;;;;;;;26.37;20.48;;;;;;;21.89;73.52;100350.59;3668593;79;99675;-89
2022/06/06 16:53:39;;;;;;;16.97;14.80;;;;;;;21.69;74.03;100353.55;3687173;79;99613;-89
2022/06/06 16:58:51;;;;;;;23.57;19.82;;;;;;;21.67;74.09;100350.37;3687673;79;99308;-89
2022/06/06 17:03:57;;;;;;;20.35;16.45;;;;;;;21.62;74.04;100346.73;3687420;79;25885;-90
2022/06/06 17:09:04;;;;;;;17.45;15.45;;;;;;;21.51;74.40;100341.52;3679736;78;99162;-89
2022/06/06 17:14:31;;;;;;;21.10;18.57;;;;;;;21.42;74.55;100345.63;3690963;78;98174;-92
2022/06/06 17:19:41;;;;;;;22.73;17.90;;;;;;;21.43;74.46;100359.82;3688967;78;99616;-87
2022/06/06 17:24:53;;;;;;;18.87;16.15;;;;;;;21.38;74.49;100360.99;3621558;80;99591;-87
2022/06/06 17:30:27;;;;;;;19.20;16.10;;;;;;;21.23;74.96;100363.49;3671158;79;99563;-85
2022/06/06 17:35:37;;;;;;;20.30;16.90;;;;;;;21.15;75.25;100353.75;3685089;79;99604;-86
2022/06/06 17:40:52;;;;;;;20.95;18.42;;;;;;;20.97;76.35;100347.16;3649239;79;99616;-86
2022/06/06 17:46:20;;;;;;;18.60;14.30;;;;;;;20.93;75.87;100346.52;3666250;79;26033;-86
2022/06/06 17:51:45;;;;;;;20.62;17.05;;;;;;;20.81;76.41;100336.86;3612262;80;32033;-86
2022/06/06 17:57:17;;;;;;;17.80;13.40;;;;;;;20.70;77.19;100338.45;3657642;80;99456;-86
2022/06/06 18:03:00;;;;;;;16.60;14.28;;;;;;;20.62;76.72;100339.88;3656673;80;99357;-86
2022/06/06 18:08:39;;;;;;;17.32;14.38;;;;;;;20.55;77.54;100334.52;3635133;80;99396;-86
2022/06/06 18:14:06;;;;;;;17.27;14.55;;;;;;;20.32;78.69;100322.25;3577430;81;99718;-85
2022/06/06 18:19:10;;;;;;;18.85;14.58;;;;;;;20.21;78.86;100316.20;3658636;78;99262;-87
2022/06/06 18:24:28;;;;;;;17.30;15.32;;;;;;;20.08;79.72;100322.36;3532535;81;99597;-87
2022/06/06 18:29:40;;;;;;;28.15;24.12;;;;;;;20.00;79.53;100313.37;3615697;80;99662;-87
2022/06/06 18:35:19;;;;;;;30.70;26.80;;;;;;;19.95;79.63;100316.70;3584813;80;99669;-86
2022/06/06 18:40:36;;;;;;;29.05;25.20;;;;;;;19.85;81.12;100319.21;3562540;81;99116;-86
2022/06/06 18:45:37;;;;;;;24.05;20.57;;;;;;;19.79;81.22;100327.94;3627819;81;98855;-87
2022/06/06 18:50:39;;;;;;;23.18;19.45;;;;;;;19.76;81.21;100318.27;3635661;79;99352;-87
2022/06/06 18:55:49;;;;;;;22.67;20.00;;;;;;;19.59;82.68;100303.59;3676331;79;99265;-86
2022/06/06 19:00:51;;;;;;;20.17;18.07;;;;;;;19.56;83.82;100307.24;3650934;79;99509;-87
2022/06/06 19:06:06;;;;;;;20.65;17.80;;;;;;;19.47;83.39;100304.92;3668163;79;99670;-86
2022/06/06 19:11:20;;;;;;;21.70;17.60;;;;;;;19.43;83.08;100312.00;3649243;79;99583;-87
2022/06/06 19:16:26;;;;;;;20.80;18.12;;;;;;;19.38;83.27;100323.69;3641201;79;99231;-87
2022/06/06 19:21:36;;;;;;;21.27;18.40;;;;;;;19.26;83.92;100324.41;3670725;79;99207;-87
2022/06/06 19:26:50;;;;;;;26.60;20.90;;;;;;;19.11;84.33;100317.59;3707018;78;99384;-86
2022/06/06 19:32:14;;;;;;;24.00;20.60;;;;;;;19.05;83.79;100317.95;3708354;78;99455;-84
2022/06/06 19:37:19;;;;;;;20.90;17.55;;;;;;;18.98;84.45;100320.12;3707028;78;99206;-85
2022/06/06 19:42:46;;;;;;;25.20;20.45;;;;;;;18.85;84.42;100318.63;3710039;78;99852;-86
2022/06/06 19:48:11;;;;;;;24.12;20.15;;;;;;;18.80;84.62;100332.33;3710193;77;99168;-85
2022/06/06 19:53:24;;;;;;;26.40;22.62;;;;;;;18.71;85.45;100334.92;3712503;78;98287;-85
2022/06/06 19:58:28;;;;;;;25.50;21.73;;;;;;;18.57;86.42;100338.02;3697803;78;99137;-85
2022/06/06 20:03:41;;;;;;;28.23;22.45;;;;;;;18.44;86.66;100344.90;3633593;79;99652;-85
2022/06/06 20:08:59;;;;;;;27.90;22.82;;;;;;;18.38;86.59;100354.19;3653173;79;99624;-86
2022/06/06 20:14:04;;;;;;;25.65;21.30;;;;;;;18.23;87.35;100357.86;3663580;79;99559;-86
2022/06/06 20:19:42;;;;;;;25.72;20.95;;;;;;;18.12;87.44;100363.47;3667189;79;99180;-85
2022/06/06 20:24:48;;;;;;;24.52;21.40;;;;;;;18.02;87.79;100353.32;3691096;78;99477;-86
2022/06/06 20:30:23;;;;;;;24.60;21.70;;;;;;;17.96;87.15;100360.02;3626091;79;99627;-85
2022/06/06 20:35:32;;;;;;;29.77;24.70;;;;;;;17.82;88.04;100357.49;3703066;78;99542;-87
2022/06/06 20:40:53;;;;;;;25.40;21.48;;;;;;;17.74;88.63;100346.92;3691307;78;99099;-88
2022/06/06 20:45:58;;;;;;;29.18;23.85;;;;;;;17.63;88.49;100359.67;3674032;78;98855;-92
2022/06/06 20:51:00;;;;;;;28.73;21.68;;;;;;;17.57;89.43;100359.98;3687802;78;99487;-90
2022/06/06 20:56:06;;;;;;;23.00;19.82;;;;;;;17.52;89.69;100363.84;3686625;78;99584;-91
2022/06/06 21:01:13;;;;;;;28.92;24.55;;;;;;;17.47;89.46;100365.13;3693160;78;99073;-91
2022/06/06 21:06:13;;;;;;;26.50;21.87;;;;;;;17.46;89.70;100366.34;3701858;78;99539;-90
2022/06/06 21:11:15;;;;;;;26.75;21.35;;;;;;;17.42;89.66;100360.05;3688583;78;99634;-90
2022/06/06 21:16:16;;;;;;;24.10;20.12;;;;;;;17.41;88.74;100355.70;3697546;78;99251;-85
2022/06/06 21:21:19;;;;;;;21.90;17.23;;;;;;;17.41;89.01;100373.78;3693819;78;99049;-87
2022/06/06 21:26:22;;;;;;;29.63;23.35;;;;;;;17.42;89.05;100400.39;3596096;79;99277;-88
2022/06/06 21:31:24;;;;;;;23.05;16.55;;;;;;;17.42;92.98;100424.04;3630585;79;99574;-86
2022/06/06 21:36:25;;;;;;;19.27;13.07;;;;;;;17.38;91.75;100438.61;3614413;79;99691;-78
2022/06/06 21:41:26;;;;;;;15.55;8.20;;;;;;;17.32;93.06;100442.25;3617710;80;99802;-75
2022/06/06 21:46:27;;;;;;;15.68;7.78;;;;;;;17.16;92.98;100458.20;3569046;79;99156;-76
2022/06/06 21:51:39;;;;;;;16.15;8.68;;;;;;;17.11;92.50;100482.31;3641789;79;98795;-74
2022/06/06 21:56:52;;;;;;;11.63;6.97;;;;;;;17.10;92.35;100490.48;3642807;78;99231;-76
2022/06/06 22:01:56;;;;;;;16.12;6.15;;;;;;;17.10;92.53;100504.38;3649059;78;99403;-75
2022/06/06 22:06:57;;;;;;;12.35;6.30;;;;;;;17.04;92.60;100474.08;3642491;80;99320;-76
2022/06/06 22:11:59;;;;;;;10.53;5.70;;;;;;;17.02;92.20;100465.38;3648413;80;99392;-76
2022/06/06 22:17:00;;;;;;;10.50;4.75;;;;;;;16.98;92.29;100445.17;3635343;79;99005;-76
2022/06/06 22:22:04;;;;;;;8.25;4.55;;;;;;;16.95;92.62;100432.72;3651837;80;31619;-75
2022/06/06 22:27:06;;;;;;;8.30;4.70;;;;;;;16.92;93.18;100419.64;3625771;80;99050;-76
2022/06/06 22:32:07;;;;;;;8.70;4.22;;;;;;;16.87;93.33;100413.16;3598941;81;98799;-76
2022/06/06 22:37:09;;;;;;;9.93;4.90;;;;;;;16.75;94.54;100395.67;3612728;80;98857;-76
2022/06/06 22:42:10;;;;;;;9.63;4.13;;;;;;;16.59;96.81;100369.11;3551465;80;98857;-78
2022/06/06 22:47:12;;;;;;;6.63;3.70;;;;;;;16.48;97.41;100339.30;3644806;80;99072;-78
2022/06/06 22:52:13;;;;;;;9.20;4.00;;;;;;;16.42;98.46;100347.33;3604365;81;30250;-79
2022/06/06 22:57:14;;;;;;;9.97;5.33;;;;;;;16.45;97.52;100358.98;3593184;80;98702;-79
2022/06/06 23:02:15;;;;;;;8.70;5.53;;;;;;;16.43;98.75;100358.63;3652790;80;122927;-79
2022/06/06 23:07:16;;;;;;;12.43;6.22;;;;;;;16.42;98.02;100364.00;3599136;80;99328;-79
2022/06/06 23:12:17;;;;;;;8.38;5.58;;;;;;;16.41;98.40;100376.91;3647278;80;99055;-78
2022/06/06 23:17:18;;;;;;;10.63;6.90;;;;;;;16.39;98.28;100377.91;3598122;80;123138;-80
2022/06/06 23:22:19;;;;;;;11.12;6.83;;;;;;;16.41;98.42;100368.58;3596710;81;26153;-80
2022/06/06 23:27:20;;;;;;;11.43;6.20;;;;;;;16.42;98.90;100359.83;3580128;81;98921;-79
2022/06/06 23:32:21;;;;;;;12.63;6.87;;;;;;;16.43;98.62;100348.90;3616572;80;98903;-80
2022/06/06 23:37:28;;;;;;;14.85;9.80;;;;;;;16.42;99.11;100338.20;3606197;80;99040;-80
2022/06/06 23:42:32;;;;;;;13.65;9.00;;;;;;;16.42;100.00;100329.27;3592986;80;99026;-80
2022/06/06 23:47:48;;;;;;;13.58;9.45;;;;;;;16.42;100.00;100327.89;3597686;80;99291;-80
2022/06/06 23:52:56;;;;;;;14.50;10.05;;;;;;;16.44;100.00;100312.97;3621003;79;31888;-80
2022/06/06 23:57:58;;;;;;;17.07;11.43;;;;;;;16.45;100.00;100304.81;3600648;80;99272;-81
